createdAt,value
2023-01-17T00:02:08.695Z,4.20
2023-01-17T00:04:55.558Z,4.50
2023-01-17T00:07:44.122Z,6.60
2023-01-17T00:10:15.653Z,4.80
2023-01-17T00:12:49.328Z,5.10
2023-01-17T00:15:19.954Z,4.80
2023-01-17T00:17:48.958Z,5.10
2023-01-17T00:20:38.028Z,4.30
2023-01-17T00:23:40.859Z,3.70
2023-01-17T00:26:16.700Z,3.60
2023-01-17T00:28:45.881Z,4.70
2023-01-17T00:31:15.934Z,4.70
2023-01-17T00:33:44.164Z,4.10
2023-01-17T00:36:12.857Z,5.50
2023-01-17T00:38:41.573Z,5.40
2023-01-17T00:41:12.053Z,4.50
2023-01-17T00:43:59.362Z,4.40
2023-01-17T00:46:46.020Z,5.70
2023-01-17T00:49:32.904Z,4.80
2023-01-17T00:52:19.509Z,3.40
2023-01-17T00:55:06.442Z,4.60
2023-01-17T00:57:53.444Z,4.40
2023-01-17T01:00:40.800Z,4.30
2023-01-17T01:03:29.534Z,4.10
2023-01-17T01:06:16.198Z,4.20
2023-01-17T01:09:03.004Z,4.30
2023-01-17T01:11:50.486Z,5.90
2023-01-17T01:14:37.146Z,4.10
2023-01-17T01:17:23.816Z,3.50
2023-01-17T01:20:10.034Z,3.50
2023-01-17T01:22:56.323Z,3.80
2023-01-17T01:25:42.998Z,4.50
2023-01-17T01:28:31.926Z,4.60
2023-01-17T01:31:20.084Z,5.40
2023-01-17T01:33:48.677Z,5.60
2023-01-17T01:36:16.968Z,4.60
2023-01-17T01:38:45.991Z,6.00
2023-01-17T01:41:14.306Z,5.70
2023-01-17T01:43:52.498Z,6.30
2023-01-17T01:46:29.755Z,4.90
2023-01-17T01:49:25.125Z,6.80
2023-01-17T01:51:59.007Z,5.80
2023-01-17T01:54:33.654Z,6.10
2023-01-17T01:57:05.239Z,8.20
2023-01-17T01:59:34.996Z,14.80
2023-01-17T02:02:03.297Z,15.10
2023-01-17T02:04:31.225Z,10.80
2023-01-17T02:07:07.373Z,10.80
2023-01-17T02:09:35.400Z,7.50
2023-01-17T02:12:05.387Z,8.20
2023-01-17T02:14:33.888Z,8.40
2023-01-17T02:17:17.395Z,6.00
2023-01-17T02:20:19.116Z,6.30
2023-01-17T02:23:24.970Z,6.80
2023-01-17T02:26:31.556Z,9.10
2023-01-17T02:29:15.102Z,7.20
2023-01-17T02:32:01.283Z,8.80
2023-01-17T02:35:09.240Z,5.90
2023-01-17T02:37:40.178Z,6.10
2023-01-17T02:40:20.479Z,5.50
2023-01-17T02:42:55.621Z,4.90
2023-01-17T02:45:23.958Z,8.90
2023-01-17T02:47:51.981Z,8.40
2023-01-17T02:50:23.920Z,9.40
2023-01-17T02:52:59.288Z,8.60
2023-01-17T02:55:48.839Z,7.00
2023-01-17T02:58:26.030Z,9.40
2023-01-17T03:01:12.518Z,5.10
2023-01-17T03:04:08.615Z,4.00
2023-01-17T03:07:00.529Z,3.50
2023-01-17T03:09:30.461Z,6.50
2023-01-17T03:12:00.102Z,3.90
2023-01-17T03:14:31.099Z,3.60
2023-01-17T03:19:27.093Z,4.30
2023-01-17T03:21:55.354Z,3.70
2023-01-17T03:24:23.873Z,3.90
2023-01-17T03:26:52.441Z,8.00
2023-01-17T03:29:20.438Z,3.90
2023-01-17T03:31:48.415Z,4.10
2023-01-17T03:34:16.309Z,3.50
2023-01-17T03:36:44.604Z,3.40
2023-01-17T03:39:12.601Z,3.30
2023-01-17T03:41:40.826Z,3.40
2023-01-17T03:44:08.805Z,4.00
2023-01-17T03:46:37.016Z,4.40
2023-01-17T03:49:04.961Z,4.20
2023-01-17T03:51:32.760Z,5.20
2023-01-17T03:54:01.039Z,4.70
2023-01-17T03:56:28.861Z,3.30
2023-01-17T03:58:58.893Z,3.30
2023-01-17T04:01:26.810Z,3.10
2023-01-17T04:03:55.794Z,3.10
2023-01-17T04:06:23.752Z,4.50
2023-01-17T04:08:51.586Z,3.90
2023-01-17T04:11:20.350Z,3.10
2023-01-17T04:13:48.428Z,3.00
2023-01-17T04:16:18.085Z,2.40
2023-01-17T04:18:46.058Z,2.70
2023-01-17T04:21:14.005Z,3.10
2023-01-17T04:23:42.262Z,3.40
2023-01-17T04:26:12.811Z,3.20
2023-01-17T04:28:41.067Z,4.40
2023-01-17T04:31:16.298Z,2.80
2023-01-17T04:33:44.396Z,3.30
2023-01-17T04:36:12.282Z,4.20
2023-01-17T04:38:40.300Z,4.70
2023-01-17T04:41:08.159Z,2.50
2023-01-17T04:43:36.228Z,3.20
2023-01-17T04:46:06.189Z,4.10
2023-01-17T04:48:34.158Z,3.50
2023-01-17T04:51:05.539Z,6.10
2023-01-17T04:56:01.263Z,3.40
2023-01-17T04:58:31.772Z,6.10
2023-01-17T05:01:08.556Z,3.60
2023-01-17T05:03:36.662Z,3.90
2023-01-17T05:06:04.837Z,3.60
2023-01-17T05:08:32.888Z,2.80
2023-01-17T05:11:00.833Z,2.60
2023-01-17T05:13:28.793Z,3.60
2023-01-17T05:15:58.435Z,2.30
2023-01-17T05:18:26.842Z,2.20
2023-01-17T05:21:01.678Z,2.10
2023-01-17T05:23:30.092Z,2.20
2023-01-17T05:25:58.060Z,2.90
2023-01-17T05:28:25.977Z,1.80
2023-01-17T05:30:54.897Z,2.20
2023-01-17T05:33:23.005Z,2.90
2023-01-17T05:35:51.336Z,6.00
2023-01-17T05:38:19.515Z,2.50
2023-01-17T05:40:47.546Z,4.00
2023-01-17T05:43:16.113Z,2.10
2023-01-17T05:45:43.990Z,3.90
2023-01-17T05:48:11.871Z,1.70
2023-01-17T05:50:40.129Z,2.00
2023-01-17T05:53:11.572Z,1.90
2023-01-17T05:55:40.796Z,1.80
2023-01-17T05:58:14.557Z,1.40
2023-01-17T06:00:43.365Z,2.20
2023-01-17T06:03:11.753Z,3.80
2023-01-17T06:05:41.323Z,3.10
2023-01-17T06:08:10.993Z,1.70
2023-01-17T06:10:39.540Z,2.10
2023-01-17T06:13:16.750Z,6.30
2023-01-17T06:15:44.898Z,2.30
2023-01-17T06:18:16.380Z,1.80
2023-01-17T06:20:45.069Z,2.00
2023-01-17T06:23:14.835Z,2.10
2023-01-17T06:25:47.273Z,3.30
2023-01-17T06:28:17.837Z,2.00
2023-01-17T06:30:46.475Z,1.90
2023-01-17T06:33:14.939Z,2.00
2023-01-17T06:35:53.291Z,1.80
2023-01-17T06:38:22.128Z,3.00
2023-01-17T06:40:50.317Z,2.30
2023-01-17T06:43:18.986Z,2.10
2023-01-17T06:45:47.391Z,2.20
2023-01-17T06:48:16.095Z,2.70
2023-01-17T06:50:44.610Z,1.80
2023-01-17T06:53:12.989Z,2.80
2023-01-17T06:55:43.935Z,5.40
2023-01-17T06:58:11.968Z,1.80
2023-01-17T07:00:41.110Z,1.70
2023-01-17T07:03:19.314Z,2.00
2023-01-17T07:05:48.269Z,2.00
2023-01-17T07:08:17.334Z,2.40
2023-01-17T07:10:46.644Z,3.20
2023-01-17T07:13:14.972Z,1.60
2023-01-17T07:15:42.965Z,2.40
2023-01-17T07:18:10.918Z,3.60
2023-01-17T07:20:38.814Z,1.80
2023-01-17T07:23:06.838Z,5.10
2023-01-17T07:25:35.628Z,1.80
2023-01-17T07:28:06.056Z,2.10
2023-01-17T07:30:35.254Z,1.90
2023-01-17T07:33:03.513Z,2.70
2023-01-17T07:35:31.839Z,1.60
2023-01-17T07:37:59.811Z,1.50
2023-01-17T07:40:27.785Z,3.70
2023-01-17T07:43:14.373Z,2.60
2023-01-17T07:45:45.010Z,2.40
2023-01-17T07:48:13.843Z,3.50
2023-01-17T07:50:41.818Z,2.30
2023-01-17T07:53:10.469Z,3.80
2023-01-17T07:55:38.558Z,2.20
2023-01-17T07:58:06.552Z,1.80
2023-01-17T08:00:34.578Z,2.60
2023-01-17T08:03:02.766Z,2.40
2023-01-17T08:05:30.930Z,2.20
2023-01-17T08:07:58.960Z,2.10
2023-01-17T08:10:26.835Z,1.90
2023-01-17T08:12:55.533Z,3.40
2023-01-17T08:15:26.766Z,1.90
2023-01-17T08:17:57.561Z,2.60
2023-01-17T08:20:28.132Z,4.60
2023-01-17T08:22:57.453Z,2.60
2023-01-17T08:25:26.445Z,4.30
2023-01-17T08:27:58.693Z,3.10
2023-01-17T08:30:27.459Z,2.80
2023-01-17T08:32:55.984Z,2.70
2023-01-17T08:35:26.644Z,2.10
2023-01-17T08:37:56.773Z,4.30
2023-01-17T08:40:25.251Z,3.90
2023-01-17T08:42:58.176Z,3.40
2023-01-17T08:45:27.452Z,2.80
2023-01-17T08:47:58.495Z,3.60
2023-01-17T08:50:27.030Z,3.20
2023-01-17T08:53:01.099Z,2.30
2023-01-17T08:55:29.366Z,2.90
2023-01-17T08:57:57.417Z,3.40
2023-01-17T09:00:27.141Z,3.10
2023-01-17T09:02:55.007Z,3.00
2023-01-17T09:05:23.347Z,3.30
2023-01-17T09:07:51.939Z,2.50
2023-01-17T09:10:19.941Z,3.00
2023-01-17T09:12:47.763Z,3.30
2023-01-17T09:15:20.652Z,3.00
2023-01-17T09:17:48.570Z,3.20
2023-01-17T09:20:17.884Z,3.10
2023-01-17T09:22:46.296Z,3.60
2023-01-17T09:25:14.422Z,3.70
2023-01-17T09:27:46.990Z,3.00
2023-01-17T09:30:15.744Z,4.10
2023-01-17T09:32:50.472Z,3.00
2023-01-17T09:35:26.571Z,5.60
2023-01-17T09:37:57.133Z,7.90
2023-01-17T09:40:25.677Z,4.60
2023-01-17T09:43:01.591Z,12.90
2023-01-17T09:45:34.909Z,5.20
2023-01-17T09:48:10.514Z,3.40
2023-01-17T09:50:52.158Z,3.00
2023-01-17T09:53:21.896Z,4.20
2023-01-17T09:56:04.196Z,3.50
2023-01-17T09:58:41.283Z,3.60
2023-01-17T10:01:33.426Z,2.90
2023-01-17T10:04:30.041Z,3.50
2023-01-17T10:07:31.591Z,2.90
2023-01-17T10:10:22.475Z,3.80
2023-01-17T10:13:02.502Z,6.30
2023-01-17T10:16:01.972Z,3.00
2023-01-17T10:18:37.783Z,3.60
2023-01-17T10:21:25.974Z,3.40
2023-01-17T10:24:16.434Z,3.10
2023-01-17T10:26:49.811Z,4.20
2023-01-17T10:29:21.270Z,2.90
2023-01-17T10:31:55.948Z,2.80
2023-01-17T10:34:35.684Z,2.80
2023-01-17T10:37:25.302Z,2.70
2023-01-17T10:39:57.922Z,2.60
2023-01-17T10:43:05.473Z,4.10
2023-01-17T10:45:41.444Z,3.00
2023-01-17T10:48:13.833Z,2.10
2023-01-17T10:51:29.586Z,3.00
2023-01-17T10:54:16.606Z,4.70
2023-01-17T10:56:48.443Z,2.10
2023-01-17T10:59:16.416Z,2.40
2023-01-17T11:01:44.704Z,2.10
2023-01-17T11:04:20.848Z,2.50
2023-01-17T11:07:12.093Z,2.40
2023-01-17T11:09:43.046Z,2.90
2023-01-17T11:12:30.092Z,5.90
2023-01-17T11:15:10.294Z,3.10
2023-01-17T11:17:45.938Z,2.50
2023-01-17T11:20:24.326Z,1.90
2023-01-17T11:23:16.430Z,3.10
2023-01-17T11:25:58.938Z,4.00
2023-01-17T11:28:30.671Z,2.80
2023-01-17T11:31:03.664Z,2.60
2023-01-17T11:33:45.403Z,2.80
2023-01-17T11:36:33.203Z,2.70
2023-01-17T11:39:04.264Z,2.20
2023-01-17T11:41:39.323Z,2.80
2023-01-17T11:44:32.241Z,2.70
2023-01-17T11:47:12.341Z,2.20
2023-01-17T11:49:42.558Z,2.20
2023-01-17T11:52:18.980Z,5.40
2023-01-17T11:54:48.304Z,3.50
2023-01-17T11:57:35.007Z,2.10
2023-01-17T12:00:08.919Z,2.10
2023-01-17T12:03:15.577Z,2.00
2023-01-17T12:05:56.654Z,2.10
2023-01-17T12:08:56.999Z,4.00
2023-01-17T12:12:08.484Z,3.10
2023-01-17T12:14:44.796Z,2.40
2023-01-17T12:17:25.511Z,4.80
2023-01-17T12:20:05.569Z,2.60
2023-01-17T12:22:42.358Z,3.00
2023-01-17T12:25:38.488Z,2.70
2023-01-17T12:28:24.920Z,3.80
2023-01-17T12:31:07.346Z,3.40
2023-01-17T12:33:41.366Z,5.90
2023-01-17T12:36:19.341Z,3.10
2023-01-17T12:38:48.641Z,4.70
2023-01-17T12:41:37.113Z,5.00
2023-01-17T12:44:05.623Z,2.50
2023-01-17T12:46:50.626Z,2.80
2023-01-17T12:49:25.023Z,4.40
2023-01-17T12:52:27.568Z,2.90
2023-01-17T12:57:32.056Z,2.90
2023-01-17T13:00:07.503Z,3.30
2023-01-17T13:02:51.671Z,2.20
2023-01-17T13:05:23.805Z,3.00
2023-01-17T13:08:14.197Z,2.30
2023-01-17T13:11:03.216Z,6.10
2023-01-17T13:13:32.630Z,3.70
2023-01-17T13:16:07.646Z,2.50
2023-01-17T13:18:37.125Z,2.40
2023-01-17T13:21:33.348Z,4.10
2023-01-17T13:24:28.577Z,2.50
2023-01-17T13:26:56.528Z,4.90
2023-01-17T13:29:42.021Z,11.00
2023-01-17T13:32:28.857Z,2.70
2023-01-17T13:35:27.542Z,2.20
2023-01-17T13:38:32.986Z,6.40
2023-01-17T13:41:46.031Z,2.40
2023-01-17T13:44:21.702Z,4.10
2023-01-17T13:47:23.667Z,2.30
2023-01-17T13:49:57.384Z,2.60
2023-01-17T13:52:25.262Z,5.90
2023-01-17T13:54:57.438Z,2.10
2023-01-17T13:57:32.882Z,5.70
2023-01-17T14:00:26.613Z,2.40
2023-01-17T14:02:55.625Z,2.50
2023-01-17T14:05:30.135Z,2.10
2023-01-17T14:08:12.982Z,2.20
2023-01-17T14:10:47.176Z,2.30
2023-01-17T14:13:39.883Z,2.50
2023-01-17T14:16:31.751Z,3.90
2023-01-17T14:18:59.888Z,2.80
2023-01-17T14:21:35.533Z,4.20
2023-01-17T14:24:15.110Z,2.30
2023-01-17T14:26:54.802Z,2.10
2023-01-17T14:29:57.784Z,2.30
2023-01-17T14:32:37.464Z,2.80
2023-01-17T14:35:23.655Z,2.20
2023-01-17T14:37:54.149Z,2.70
2023-01-17T14:40:26.573Z,1.90
2023-01-17T14:43:28.839Z,4.00
2023-01-17T14:46:06.526Z,1.50
2023-01-17T14:48:39.296Z,3.20
2023-01-17T14:51:28.509Z,4.60
2023-01-17T14:54:08.030Z,7.10
2023-01-17T14:56:35.872Z,1.80
2023-01-17T14:59:17.178Z,4.90
2023-01-17T15:02:07.609Z,3.30
2023-01-17T15:04:39.953Z,3.70
2023-01-17T15:07:16.446Z,1.60
2023-01-17T15:09:45.344Z,1.20
2023-01-17T15:12:14.688Z,1.80
2023-01-17T15:14:46.223Z,8.20
2023-01-17T15:17:25.417Z,2.80
2023-01-17T15:20:03.691Z,4.30
2023-01-17T15:22:32.976Z,4.90
2023-01-17T15:25:01.982Z,8.80
2023-01-17T15:27:31.124Z,13.30
2023-01-17T15:30:02.597Z,13.70
2023-01-17T15:32:33.226Z,17.50
2023-01-17T15:37:41.854Z,23.00
2023-01-17T15:40:18.591Z,17.90
2023-01-17T15:43:08.527Z,37.80
2023-01-17T15:45:36.499Z,31.30
2023-01-17T15:48:37.396Z,21.40
2023-01-17T15:51:05.550Z,28.00
2023-01-17T15:53:37.414Z,31.90
2023-01-17T15:56:28.075Z,36.70
2023-01-17T16:01:54.443Z,49.80
2023-01-17T16:04:34.543Z,56.10
2023-01-17T16:07:22.382Z,67.70
2023-01-17T16:09:50.672Z,46.80
2023-01-17T16:12:18.682Z,42.90
2023-01-17T16:15:06.283Z,39.20
2023-01-17T16:17:36.051Z,36.80
2023-01-17T16:20:11.150Z,31.40
2023-01-17T16:22:40.328Z,30.80
2023-01-17T16:25:17.319Z,32.00
2023-01-17T16:27:46.374Z,37.30
2023-01-17T16:30:17.357Z,35.40
2023-01-17T16:32:50.863Z,42.50
2023-01-17T16:35:21.688Z,41.60
2023-01-17T16:37:54.559Z,20.00
2023-01-17T16:40:25.764Z,28.30
2023-01-17T16:42:56.361Z,41.20
2023-01-17T16:45:25.679Z,50.90
2023-01-17T16:47:54.459Z,38.10
2023-01-17T16:50:25.134Z,39.40
2023-01-17T16:52:54.851Z,28.50
2023-01-17T16:55:24.533Z,36.60
2023-01-17T16:57:56.424Z,43.50
2023-01-17T17:00:26.860Z,63.90
2023-01-17T17:02:54.865Z,68.40
2023-01-17T17:05:22.790Z,28.20
2023-01-17T17:07:52.734Z,25.30
2023-01-17T17:10:25.270Z,34.00
2023-01-17T17:12:53.888Z,27.20
2023-01-17T17:15:22.070Z,23.90
2023-01-17T17:17:51.135Z,29.00
2023-01-17T17:20:20.218Z,48.80
2023-01-17T17:22:52.274Z,55.90
2023-01-17T17:25:20.743Z,51.40
2023-01-17T17:27:48.915Z,39.60
2023-01-17T17:30:18.156Z,41.70
2023-01-17T17:32:49.447Z,37.60
2023-01-17T17:35:17.688Z,33.30
2023-01-17T17:37:45.638Z,35.20
2023-01-17T17:40:13.831Z,31.20
2023-01-17T17:42:43.022Z,32.60
2023-01-17T17:45:11.226Z,22.90
2023-01-17T17:47:39.332Z,17.70
2023-01-17T17:50:08.181Z,25.30
2023-01-17T17:52:36.177Z,22.50
2023-01-17T17:55:04.563Z,29.50
2023-01-17T17:57:32.540Z,54.60
2023-01-17T18:00:00.961Z,51.30
2023-01-17T18:02:28.972Z,34.10
2023-01-17T18:04:57.541Z,22.00
2023-01-17T18:07:25.474Z,16.10
2023-01-17T18:09:54.222Z,13.40
2023-01-17T18:12:22.314Z,13.20
2023-01-17T18:14:50.636Z,15.30
2023-01-17T18:17:20.555Z,19.10
2023-01-17T18:19:48.611Z,15.30
2023-01-17T18:22:16.972Z,20.30
2023-01-17T18:24:44.962Z,22.60
2023-01-17T18:27:13.171Z,22.00
2023-01-17T18:29:41.081Z,18.30
2023-01-17T18:32:09.049Z,17.90
2023-01-17T18:34:41.490Z,24.00
2023-01-17T18:37:10.067Z,21.30
2023-01-17T18:39:38.041Z,16.50
2023-01-17T18:42:06.791Z,19.60
2023-01-17T18:44:34.827Z,23.20
2023-01-17T18:47:06.964Z,19.30
2023-01-17T18:49:35.686Z,22.10
2023-01-17T18:52:05.043Z,19.00
2023-01-17T18:54:34.233Z,20.70
2023-01-17T18:57:02.377Z,17.90
2023-01-17T18:59:30.481Z,24.40
2023-01-17T19:01:58.854Z,12.10
2023-01-17T19:04:28.570Z,10.10
2023-01-17T19:06:56.760Z,9.10
2023-01-17T19:09:24.642Z,9.60
2023-01-17T19:11:53.203Z,14.70
2023-01-17T19:14:21.012Z,11.90
2023-01-17T19:16:48.828Z,12.80
2023-01-17T19:19:17.043Z,14.40
2023-01-17T19:21:45.536Z,9.80
2023-01-17T19:24:14.423Z,8.20
2023-01-17T19:26:43.733Z,16.50
2023-01-17T19:29:12.394Z,12.80
2023-01-17T19:31:44.215Z,21.40
2023-01-17T19:34:18.908Z,10.00
2023-01-17T19:36:47.926Z,7.80
2023-01-17T19:39:16.421Z,11.80
2023-01-17T19:41:45.512Z,18.60
2023-01-17T19:44:14.971Z,21.90
2023-01-17T19:46:44.550Z,11.80
2023-01-17T19:49:12.625Z,11.50
2023-01-17T19:51:40.800Z,8.70
2023-01-17T19:54:09.115Z,7.40
2023-01-17T19:56:37.113Z,6.80
2023-01-17T19:59:06.126Z,6.90
2023-01-17T20:01:35.227Z,6.60
2023-01-17T20:04:04.698Z,7.40
2023-01-17T20:06:35.603Z,6.30
2023-01-17T20:09:05.632Z,6.10
2023-01-17T20:11:33.894Z,5.90
2023-01-17T20:14:02.446Z,4.00
2023-01-17T20:16:32.135Z,5.90
2023-01-17T20:19:02.386Z,4.80
2023-01-17T20:21:31.917Z,6.30
2023-01-17T20:24:03.049Z,2.90
2023-01-17T20:26:37.305Z,6.40
2023-01-17T20:29:12.416Z,3.30
2023-01-17T20:31:42.937Z,3.00
2023-01-17T20:34:14.102Z,5.30
2023-01-17T20:36:42.813Z,2.40
2023-01-17T20:39:13.223Z,2.50
2023-01-17T20:41:43.809Z,2.90
2023-01-17T20:44:15.450Z,2.30
2023-01-17T20:46:43.802Z,2.40
2023-01-17T20:49:15.034Z,2.10
2023-01-17T20:51:45.193Z,2.10
2023-01-17T20:54:15.825Z,2.10
2023-01-17T20:59:15.061Z,1.50
2023-01-17T21:01:44.503Z,1.60
2023-01-17T21:04:15.094Z,2.00
2023-01-17T21:06:43.777Z,1.80
2023-01-17T21:09:14.900Z,2.40
2023-01-17T21:11:43.713Z,3.20
2023-01-17T21:14:11.648Z,4.00
2023-01-17T21:16:40.022Z,1.90
2023-01-17T21:19:12.295Z,3.00
2023-01-17T21:21:40.561Z,2.90
2023-01-17T21:24:08.827Z,2.30
2023-01-17T21:26:39.163Z,3.60
2023-01-17T21:29:07.236Z,2.30
2023-01-17T21:31:36.763Z,3.00
2023-01-17T21:34:07.899Z,2.40
2023-01-17T21:36:38.379Z,3.00
2023-01-17T21:39:10.371Z,5.30
2023-01-17T21:41:41.155Z,3.60
2023-01-17T21:44:16.110Z,2.80
2023-01-17T21:46:44.240Z,2.30
2023-01-17T21:49:12.580Z,2.90
2023-01-17T21:52:04.742Z,2.00
2023-01-17T21:54:51.496Z,3.70
2023-01-17T21:57:40.917Z,2.90
2023-01-17T22:00:14.596Z,2.30
2023-01-17T22:02:46.077Z,2.60
2023-01-17T22:08:04.011Z,3.00
2023-01-17T22:10:32.651Z,2.50
2023-01-17T22:13:00.827Z,3.20
2023-01-17T22:15:28.759Z,2.50
2023-01-17T22:17:57.288Z,2.30
2023-01-17T22:20:25.968Z,2.30
2023-01-17T22:22:54.091Z,2.50
2023-01-17T22:25:23.669Z,2.00
2023-01-17T22:27:51.929Z,2.40
2023-01-17T22:30:20.149Z,2.60
2023-01-17T22:32:48.114Z,3.90
2023-01-17T22:35:16.390Z,2.70
2023-01-17T22:37:44.666Z,4.80
2023-01-17T22:40:13.455Z,3.10
2023-01-17T22:42:42.052Z,5.00
2023-01-17T22:45:10.703Z,2.40
2023-01-17T22:47:39.093Z,3.10
2023-01-17T22:50:07.815Z,2.50
2023-01-17T22:52:36.107Z,2.30
2023-01-17T22:55:04.811Z,1.90
2023-01-17T22:57:33.219Z,3.90
2023-01-17T23:00:01.180Z,2.90
2023-01-17T23:02:29.363Z,1.90
2023-01-17T23:04:57.616Z,1.30
2023-01-17T23:07:27.198Z,1.70
2023-01-17T23:09:55.929Z,4.20
2023-01-17T23:12:24.191Z,5.40
2023-01-17T23:15:11.175Z,2.70
2023-01-17T23:17:58.248Z,2.40
2023-01-17T23:20:26.221Z,1.80
2023-01-17T23:22:54.203Z,1.70
2023-01-17T23:25:23.037Z,1.60
2023-01-17T23:28:09.478Z,1.90
2023-01-17T23:30:41.597Z,2.40
2023-01-17T23:33:12.725Z,2.40
2023-01-17T23:35:43.135Z,1.50
2023-01-17T23:38:34.037Z,1.90
2023-01-17T23:41:23.884Z,4.30
2023-01-17T23:43:59.874Z,1.50
2023-01-17T23:46:30.243Z,2.40
2023-01-17T23:48:58.386Z,1.80
2023-01-17T23:51:26.404Z,1.90
2023-01-17T23:54:05.630Z,3.00
2023-01-17T23:56:34.109Z,1.50
2023-01-17T23:59:02.051Z,2.20
